Time;durP1;ratioP1;P1;durP2;ratioP2;P2;SDS_P1;SDS_P2;PMS_P1;PMS_P2;Temp;Humidity;BMP_temperature;BMP_pressure;BME280_temperature;BME280_humidity;BME280_pressure;Samples;Min_cycle;Max_cycle;Signal;HPM_P1;HPM_P2
2022/05/19 00:01:30;;;;;;;1.00;0.70;;;;;;;22.59;40.88;101606.50;16132306;19;129620;-44
2022/05/19 00:06:52;;;;;;;2.67;0.85;;;;;;;22.58;40.94;101599.28;16133165;19;129302;-47
2022/05/19 00:12:17;;;;;;;2.70;0.80;;;;;;;22.59;40.61;101587.00;16128936;19;130186;-47
2022/05/19 00:17:39;;;;;;;;;;;;;;;22.55;41.02;101594.22;16127772;19;131845;-45
2022/05/19 00:23:01;;;;;;;2.13;0.90;;;;;;;22.57;40.95;101580.00;16125502;19;130292;-46
2022/05/19 00:28:23;;;;;;;0.88;0.63;;;;;;;22.55;41.07;101577.47;16136589;19;129814;-45
2022/05/19 00:33:45;;;;;;;3.38;0.95;;;;;;;22.55;40.84;101574.69;16144516;19;131205;-49
2022/05/19 00:39:08;;;;;;;1.05;0.52;;;;;;;22.55;40.84;101574.69;16142898;19;130682;-49
2022/05/19 00:44:29;;;;;;;1.73;0.80;;;;;;;22.55;40.64;101571.03;16141457;19;130319;-44
2022/05/19 00:49:52;;;;;;;1.23;0.60;;;;;;;22.57;40.87;101560.47;16142438;19;130632;-45
2022/05/19 00:55:22;;;;;;;2.28;0.57;;;;;;;22.56;40.73;101545.69;16142867;19;130395;-49
2022/05/19 01:00:45;;;;;;;2.20;0.70;;;;;;;22.57;40.96;101532.59;16139106;19;130474;-52
2022/05/19 01:06:16;;;;;;;1.95;0.82;;;;;;;22.56;40.76;101533.69;16137017;19;129914;-50
2022/05/19 01:11:38;;;;;;;1.30;0.60;;;;;;;22.54;40.90;101528.38;16143591;19;130122;-49
2022/05/19 01:17:02;;;;;;;1.17;0.63;;;;;;;22.54;41.09;101513.59;16140774;19;130906;-48
2022/05/19 01:22:51;;;;;;;2.08;0.70;;;;;;;22.54;40.57;101508.00;16138829;19;130480;-44
2022/05/19 01:28:13;;;;;;;1.45;0.73;;;;;;;22.53;40.95;101497.94;16140002;19;130591;-44
2022/05/19 01:33:37;;;;;;;1.73;0.70;;;;;;;22.53;41.07;101495.16;16141874;19;130628;-43
2022/05/19 01:39:11;;;;;;;3.22;0.80;;;;;;;22.54;40.83;101494.06;16139840;19;130404;-45
2022/05/19 01:44:33;;;;;;;1.45;0.70;;;;;;;22.53;40.89;101495.16;16134918;19;129323;-43
2022/05/19 01:50:30;;;;;;;1.98;0.80;;;;;;;22.54;41.05;101497.72;16140248;19;129811;-46
2022/05/19 01:56:04;;;;;;;1.25;0.60;;;;;;;22.53;41.01;101497.94;16138830;19;130118;-47
2022/05/19 02:01:27;;;;;;;2.28;1.13;;;;;;;22.52;41.18;101501.88;16135367;19;130009;-47
2022/05/19 02:06:55;;;;;;;0.90;0.65;;;;;;;22.51;41.36;101509.38;16138147;19;130945;-47
2022/05/19 02:12:17;;;;;;;1.00;0.70;;;;;;;22.50;41.21;101510.47;16136262;19;130615;-49
2022/05/19 02:17:42;;;;;;;0.63;0.60;;;;;;;22.51;40.91;101514.13;16133828;19;130633;-44
2022/05/19 02:23:03;;;;;;;2.20;0.53;;;;;;;22.50;40.94;101515.22;16133231;19;130097;-45
2022/05/19 02:28:41;;;;;;;1.63;0.60;;;;;;;22.51;41.31;101519.69;16137636;19;131274;-45
2022/05/19 02:34:03;;;;;;;1.25;0.65;;;;;;;22.50;41.25;101579.34;16134057;19;129505;-46
2022/05/19 02:39:25;;;;;;;2.78;1.08;;;;;;;22.50;41.33;101649.88;16130895;19;131264;-48
2022/05/19 02:44:46;;;;;;;2.45;0.98;;;;;;;22.50;41.30;101674.16;16129197;19;129840;-50
2022/05/19 02:50:10;;;;;;;1.50;0.98;;;;;;;22.50;41.37;101661.03;16130206;19;130123;-49
2022/05/19 02:55:37;;;;;;;1.30;1.00;;;;;;;22.49;41.48;101653.78;16133144;19;130934;-48
2022/05/19 03:00:59;;;;;;;1.88;0.80;;;;;;;22.48;41.24;101651.25;16132032;19;131017;-44
2022/05/19 03:06:21;;;;;;;2.40;0.70;;;;;;;22.48;41.25;101660.44;16131367;19;129926;-46
2022/05/19 03:11:43;;;;;;;2.00;0.95;;;;;;;22.49;41.49;101666.88;16125503;19;130614;-47
2022/05/19 03:17:07;;;;;;;2.90;0.70;;;;;;;22.49;41.29;101672.47;16127341;19;130446;-51
2022/05/19 03:22:28;;;;;;;1.15;0.60;;;;;;;22.49;41.20;101672.47;16129965;19;130050;-48
2022/05/19 03:27:50;;;;;;;1.75;0.60;;;;;;;22.49;41.34;101686.41;16134709;19;130368;-45
2022/05/19 03:33:12;;;;;;;1.20;0.90;;;;;;;22.49;41.19;101684.44;16131324;19;130032;-49
2022/05/19 03:38:34;;;;;;;0.70;0.60;;;;;;;22.48;41.12;101690.28;16132079;19;130760;-47
2022/05/19 03:43:56;;;;;;;1.23;0.85;;;;;;;22.48;41.31;101662.41;16128251;19;130481;-44
2022/05/19 03:49:17;;;;;;;1.05;0.55;;;;;;;22.47;40.94;101671.88;16132781;19;130465;-51
2022/05/19 03:54:39;;;;;;;1.27;0.90;;;;;;;22.48;41.41;101698.66;16131405;19;130229;-47
2022/05/19 04:00:09;;;;;;;1.77;0.80;;;;;;;22.48;41.45;101707.00;16129278;19;131108;-45
2022/05/19 04:05:31;;;;;;;1.27;0.80;;;;;;;22.46;41.20;101692.47;16141480;19;130034;-46
2022/05/19 04:10:54;;;;;;;2.70;1.10;;;;;;;22.46;41.50;101667.38;16145671;19;130016;-44
2022/05/19 04:16:16;;;;;;;1.05;0.82;;;;;;;22.46;41.47;101670.16;16145219;19;130382;-45
2022/05/19 04:21:37;;;;;;;1.17;0.82;;;;;;;22.44;41.46;101639.78;16142306;19;130617;-48
2022/05/19 04:26:59;;;;;;;1.13;0.68;;;;;;;22.44;41.27;101671.28;16146529;19;129838;-45
2022/05/19 04:32:21;;;;;;;1.38;0.80;;;;;;;22.44;41.41;101643.38;16144407;19;131013;-46
2022/05/19 04:37:43;;;;;;;2.67;1.13;;;;;;;22.43;41.61;101608.25;16144905;19;130743;-49
2022/05/19 04:43:06;;;;;;;1.13;0.90;;;;;;;22.44;41.64;101606.31;16140668;19;130557;-49
2022/05/19 04:48:28;;;;;;;2.13;0.95;;;;;;;22.43;41.83;101608.25;16145814;19;130702;-48
2022/05/19 04:53:50;;;;;;;4.82;1.30;;;;;;;22.44;41.70;101611.88;16145723;19;130592;-46
2022/05/19 04:59:14;;;;;;;1.55;0.70;;;;;;;22.42;41.73;101617.69;16141046;19;130370;-46
2022/05/19 05:04:37;;;;;;;1.30;0.83;;;;;;;22.43;41.74;101588.72;16139592;19;130080;-48
2022/05/19 05:09:59;;;;;;;1.60;0.70;;;;;;;22.42;41.75;101578.66;16142388;19;130832;-50
2022/05/19 05:15:21;;;;;;;10.93;1.50;;;;;;;22.42;41.96;101559.16;16139343;19;130516;-46
2022/05/19 05:20:43;;;;;;;9.18;1.80;;;;;;;22.41;42.79;101515.66;16141788;19;130670;-48
2022/05/19 05:26:06;;;;;;;7.45;2.70;;;;;;;22.39;43.33;101526.25;16136001;19;129885;-48
2022/05/19 05:31:28;;;;;;;10.65;1.92;;;;;;;22.40;43.05;101568.88;16140539;19;130053;-47
2022/05/19 05:36:49;;;;;;;7.70;2.10;;;;;;;22.40;43.29;101580.88;16144106;19;129521;-48
2022/05/19 05:42:11;;;;;;;6.55;2.13;;;;;;;22.40;43.34;101578.09;16147395;19;129016;-45
2022/05/19 05:47:33;;;;;;;6.28;1.75;;;;;;;22.39;43.12;101562.47;16146824;19;130043;-48
2022/05/19 05:53:01;;;;;;;5.75;1.75;;;;;;;22.39;43.12;101569.97;16147269;19;129685;-50
2022/05/19 05:58:22;;;;;;;4.70;1.73;;;;;;;22.39;43.62;101579.22;16145515;19;130915;-49
2022/05/19 06:03:46;;;;;;;4.25;1.55;;;;;;;22.40;43.30;101583.66;16145780;19;129879;-48
2022/05/19 06:09:08;;;;;;;2.40;1.40;;;;;;;22.40;43.08;101566.94;16145091;19;129501;-48
2022/05/19 06:14:29;;;;;;;3.63;1.95;;;;;;;22.39;43.32;101582.00;16142056;19;129627;-47
2022/05/19 06:19:51;;;;;;;2.85;1.60;;;;;;;22.40;43.63;101574.47;16138642;19;129631;-45
2022/05/19 06:25:16;;;;;;;4.88;1.50;;;;;;;22.39;43.21;101551.34;16141403;19;129200;-49
2022/05/19 06:30:38;;;;;;;3.92;1.42;;;;;;;22.39;43.03;101548.53;16146939;19;130852;-51
2022/05/19 06:36:00;;;;;;;2.53;1.30;;;;;;;22.40;43.18;101564.13;16146122;19;129010;-50
2022/05/19 06:47:03;;;;;;;3.38;1.40;;;;;;;22.43;43.35;101552.47;16145232;19;129069;-45
2022/05/19 06:52:28;;;;;;;3.15;1.50;;;;;;;22.49;43.32;101560.94;16143563;19;129270;-46
2022/05/19 06:57:50;;;;;;;;;;;;;;;22.50;43.57;101584.94;16140861;19;129670;-48
2022/05/19 07:03:12;;;;;;;3.40;1.35;;;;;;;22.54;43.58;101569.34;16140819;19;129147;-49
2022/05/19 07:08:34;;;;;;;1.85;1.20;;;;;;;22.60;43.26;101573.91;16143915;19;129695;-47
2022/05/19 07:14:01;;;;;;;1.45;1.00;;;;;;;22.66;43.01;101563.66;16143507;19;130219;-47
2022/05/19 07:25:11;;;;;;;3.53;0.85;;;;;;;22.81;43.25;101568.59;16139925;19;128892;-48
2022/05/19 07:30:33;;;;;;;3.78;1.17;;;;;;;22.86;42.90;101561.13;16142303;19;129091;-48
2022/05/19 07:35:55;;;;;;;2.22;1.10;;;;;;;22.94;43.04;101557.06;16135838;19;129099;-46
2022/05/19 07:41:17;;;;;;;1.90;1.27;;;;;;;22.98;43.16;101552.66;16139421;19;129196;-48
2022/05/19 07:46:39;;;;;;;3.40;1.00;;;;;;;23.03;42.69;101549.91;16134715;19;128894;-49
2022/05/19 07:52:01;;;;;;;2.25;0.90;;;;;;;23.09;43.22;101550.00;16140239;19;129023;-50
2022/05/19 07:57:23;;;;;;;4.18;1.00;;;;;;;23.12;42.87;101541.09;16141241;19;129448;-44
2022/05/19 08:02:46;;;;;;;2.38;1.20;;;;;;;23.16;42.95;101548.69;16137918;19;129089;-46
2022/05/19 08:08:08;;;;;;;2.75;0.90;;;;;;;23.19;42.93;101533.34;16140288;19;130409;-49
2022/05/19 08:19:10;;;;;;;2.00;0.80;;;;;;;23.26;43.07;101542.38;16132944;19;129296;-48
2022/05/19 08:24:32;;;;;;;2.45;0.93;;;;;;;23.27;43.14;101532.03;16134086;19;129519;-47
2022/05/19 08:29:54;;;;;;;1.30;0.95;;;;;;;23.29;43.02;101532.63;16137562;19;129579;-48
2022/05/19 08:35:16;;;;;;;2.15;0.90;;;;;;;23.29;43.21;101536.25;16138095;19;129561;-48
2022/05/19 08:40:50;;;;;;;2.28;1.02;;;;;;;23.32;43.10;101530.13;16137388;19;129547;-45
2022/05/19 08:46:35;;;;;;;3.33;1.05;;;;;;;23.33;43.14;101526.25;16132856;19;129739;-46
2022/05/19 08:52:12;;;;;;;1.40;1.30;;;;;;;23.33;43.27;101520.66;16149665;19;129114;-45
2022/05/19 08:57:50;;;;;;;1.52;0.95;;;;;;;23.31;43.39;101500.53;16151977;19;129653;-49
2022/05/19 09:03:39;;;;;;;2.92;0.93;;;;;;;23.30;43.41;101507.22;16148939;19;128892;-46
2022/05/19 09:09:19;;;;;;;1.15;0.90;;;;;;;23.26;43.36;101508.00;16150032;19;128887;-51
2022/05/19 09:14:41;;;;;;;3.10;1.13;;;;;;;23.24;43.26;101516.66;16151362;19;131225;-48
2022/05/19 09:20:09;;;;;;;3.55;0.77;;;;;;;23.24;43.35;101515.81;16144443;19;129214;-46
2022/05/19 09:25:33;;;;;;;3.60;1.02;;;;;;;23.24;43.39;101505.50;16146488;19;128874;-47
2022/05/19 09:30:56;;;;;;;1.50;0.95;;;;;;;23.24;43.58;101494.34;16148047;19;129391;-47
2022/05/19 09:36:19;;;;;;;1.95;1.10;;;;;;;23.25;43.69;101495.16;16150261;19;129488;-46
2022/05/19 09:41:47;;;;;;;1.45;0.93;;;;;;;23.27;43.57;101491.00;16148504;19;129742;-47
2022/05/19 09:47:16;;;;;;;1.58;0.80;;;;;;;23.27;43.88;101488.19;16142984;19;129389;-50
2022/05/19 09:52:41;;;;;;;1.88;1.20;;;;;;;23.27;43.58;101498.53;16147289;19;129454;-49
2022/05/19 09:58:03;;;;;;;2.67;1.10;;;;;;;23.27;43.71;101479.81;16146754;19;129617;-44
2022/05/19 10:03:32;;;;;;;1.17;0.95;;;;;;;23.28;43.74;101450.81;16146533;19;129804;-51
2022/05/19 10:09:00;;;;;;;3.83;1.40;;;;;;;23.30;44.00;101447.75;16146552;19;130241;-46
2022/05/19 10:14:28;;;;;;;1.67;1.20;;;;;;;23.29;43.68;101460.88;16146951;19;129449;-48
2022/05/19 10:20:21;;;;;;;5.30;1.40;;;;;;;23.30;43.77;101461.72;16141577;19;129488;-48
2022/05/19 10:26:28;;;;;;;1.10;1.00;;;;;;;23.32;43.47;101474.31;16139796;19;129610;-44
2022/05/19 10:32:10;;;;;;;2.20;1.00;;;;;;;23.32;43.59;101465.09;16146319;19;129270;-49
2022/05/19 10:37:35;;;;;;;1.70;1.17;;;;;;;23.30;43.80;101478.47;16145258;19;129925;-44
2022/05/19 10:43:18;;;;;;;1.35;1.10;;;;;;;23.28;43.97;101515.00;16144203;19;129362;-47
2022/05/19 10:48:58;;;;;;;2.97;1.27;;;;;;;23.24;43.79;101488.75;16144100;19;129510;-47
2022/05/19 10:54:45;;;;;;;3.08;1.00;;;;;;;23.22;43.65;101512.44;16144007;19;129286;-45
2022/05/19 11:00:12;;;;;;;1.83;1.30;;;;;;;23.18;43.86;101566.00;16143117;19;128843;-49
2022/05/19 11:06:27;;;;;;;1.77;1.10;;;;;;;23.16;44.02;101732.03;16138925;19;129793;-47
2022/05/19 11:11:48;;;;;;;3.60;1.20;;;;;;;23.13;44.10;101877.72;16139247;19;129507;-44
2022/05/19 11:17:27;;;;;;;6.65;1.55;;;;;;;23.10;43.82;101738.66;16140170;19;131012;-48
2022/05/19 11:22:54;;;;;;;2.30;1.10;;;;;;;23.04;43.68;101749.75;16141979;19;130145;-44
2022/05/19 11:28:25;;;;;;;4.53;1.48;;;;;;;23.01;43.87;101785.69;16141693;19;129006;-45
2022/05/19 11:33:52;;;;;;;2.20;1.30;;;;;;;22.98;44.35;101814.09;16141821;19;129534;-45
2022/05/19 11:39:32;;;;;;;3.17;0.90;;;;;;;22.98;44.16;101814.09;16139938;19;129158;-50
2022/05/19 11:44:54;;;;;;;3.58;1.35;;;;;;;22.91;43.91;101708.25;16137042;19;128871;-49
2022/05/19 11:55:59;;;;;;;3.80;1.35;;;;;;;22.86;44.20;101738.84;16139967;19;129734;-48
2022/05/19 12:01:27;;;;;;;3.50;0.90;;;;;;;22.86;44.46;101778.75;16138176;19;130023;-48
2022/05/19 12:06:55;;;;;;;2.28;0.95;;;;;;;22.87;44.32;101762.88;16135069;19;129499;-49
2022/05/19 12:12:37;;;;;;;5.53;1.55;;;;;;;22.87;44.49;101740.53;16138272;19;128941;-44
2022/05/19 12:18:10;;;;;;;1.92;1.00;;;;;;;22.84;44.85;101738.25;16134102;19;129941;-46
2022/05/19 12:23:34;;;;;;;3.72;1.10;;;;;;;22.83;44.61;101828.63;16145165;19;128924;-46
2022/05/19 12:29:02;;;;;;;3.90;1.38;;;;;;;22.85;44.54;101714.84;16152854;19;129474;-46
2022/05/19 12:34:31;;;;;;;2.90;1.50;;;;;;;22.83;44.68;101691.94;16152023;19;129382;-48
2022/05/19 12:40:22;;;;;;;3.40;1.25;;;;;;;22.85;44.58;101653.47;16151718;19;129890;-45
2022/05/19 12:45:54;;;;;;;2.97;0.82;;;;;;;22.84;44.44;101674.09;16149737;19;130272;-48
2022/05/19 12:51:26;;;;;;;1.73;0.80;;;;;;;22.84;44.38;101699.19;16151622;19;129032;-49
2022/05/19 12:57:11;;;;;;;2.72;0.68;;;;;;;22.83;44.45;101759.72;16150561;19;130273;-47
2022/05/19 13:02:39;;;;;;;1.23;0.77;;;;;;;22.83;44.30;101714.25;16147332;19;129318;-50
2022/05/19 13:08:09;;;;;;;4.40;1.00;;;;;;;22.82;44.48;101657.63;16145431;19;129283;-51
2022/05/19 13:13:55;;;;;;;1.25;0.70;;;;;;;22.85;44.43;101648.72;16149961;19;129089;-45
2022/05/19 13:19:23;;;;;;;1.95;0.80;;;;;;;22.85;44.53;101693.34;16145438;19;129010;-45
2022/05/19 13:24:46;;;;;;;2.50;1.00;;;;;;;22.87;44.56;101698.69;16150244;19;129597;-50
2022/05/19 13:30:21;;;;;;;1.73;0.63;;;;;;;22.88;44.62;101708.75;16145937;19;129348;-47
2022/05/19 13:35:42;;;;;;;2.95;0.88;;;;;;;22.89;44.44;101710.44;16147831;19;129446;-48
2022/05/19 13:41:11;;;;;;;1.30;0.70;;;;;;;22.94;44.36;101713.31;16148716;19;130889;-50
2022/05/19 13:46:38;;;;;;;1.52;0.60;;;;;;;22.95;44.45;101728.97;16142950;19;129306;-47
2022/05/19 13:52:06;;;;;;;0.63;0.50;;;;;;;22.96;44.70;101749.34;16141213;19;130495;-50
2022/05/19 13:57:36;;;;;;;1.98;0.60;;;;;;;22.98;44.79;101763.88;16144111;19;130421;-47
2022/05/19 14:03:00;;;;;;;2.42;0.70;;;;;;;22.98;44.46;101775.91;16141900;19;129436;-51
2022/05/19 14:08:24;;;;;;;1.50;0.60;;;;;;;22.98;44.39;101798.22;16133267;19;130652;-49
2022/05/19 14:13:57;;;;;;;1.60;0.68;;;;;;;22.99;44.48;101815.81;16135117;19;129795;-47
2022/05/19 14:19:40;;;;;;;1.02;0.70;;;;;;;22.98;44.42;101823.34;16134673;19;129822;-51
2022/05/19 14:25:09;;;;;;;0.73;0.55;;;;;;;22.99;44.76;101813.88;16138513;19;130928;-49
2022/05/19 14:30:39;;;;;;;1.08;0.50;;;;;;;23.02;44.62;101804.13;16145105;19;129423;-46
2022/05/19 14:36:11;;;;;;;1.08;0.60;;;;;;;23.02;44.59;101801.34;16144539;19;129711;-49
2022/05/19 14:47:20;;;;;;;0.95;0.60;;;;;;;23.01;44.53;101803.31;16136827;19;129024;-51
2022/05/19 14:52:47;;;;;;;1.05;0.60;;;;;;;23.00;44.90;101801.59;16143444;19;130234;-52
2022/05/19 14:58:13;;;;;;;2.03;0.70;;;;;;;23.01;44.68;101808.88;16142956;19;129112;-48
2022/05/19 15:03:35;;;;;;;2.08;0.80;;;;;;;23.01;44.68;101808.88;16142667;19;129601;-48
2022/05/19 15:08:57;;;;;;;0.50;0.50;;;;;;;23.02;44.61;101827.28;16142167;19;129838;-46
2022/05/19 15:14:19;;;;;;;2.65;0.63;;;;;;;23.01;44.48;101834.00;16137443;19;129300;-49
2022/05/19 15:19:40;;;;;;;0.82;0.52;;;;;;;23.01;44.80;101839.59;16134529;19;129150;-51
2022/05/19 15:25:03;;;;;;;2.22;0.63;;;;;;;23.01;44.46;101845.16;16139091;19;129019;-49
2022/05/19 15:30:28;;;;;;;1.30;0.50;;;;;;;23.01;44.37;101852.69;16141060;19;128900;-51
2022/05/19 15:35:50;;;;;;;0.82;0.50;;;;;;;23.02;44.51;101857.16;16137957;19;129353;-52
2022/05/19 15:41:12;;;;;;;2.00;0.57;;;;;;;23.02;44.72;101859.94;16135024;19;129695;-48
2022/05/19 15:46:34;;;;;;;1.05;0.50;;;;;;;23.02;44.59;101866.34;16131075;19;130653;-50
2022/05/19 15:51:55;;;;;;;5.80;1.05;;;;;;;23.01;44.66;101870.28;16137793;19;129787;-46
2022/05/19 15:57:17;;;;;;;1.67;0.85;;;;;;;23.01;45.00;101881.44;16137780;19;129918;-51
2022/05/19 16:02:52;;;;;;;2.40;1.08;;;;;;;23.03;44.84;101889.56;16149676;19;129355;-49
2022/05/19 16:08:14;;;;;;;4.97;1.17;;;;;;;23.03;45.06;101898.75;16145036;19;129747;-53
2022/05/19 16:13:39;;;;;;;9.93;2.90;;;;;;;23.05;45.13;101895.72;16147546;19;129021;-53
2022/05/19 16:19:01;;;;;;;58.10;16.85;;;;;;;23.05;45.17;101907.72;16144822;19;129692;-51
2022/05/19 16:24:23;;;;;;;119.95;32.42;;;;;;;23.08;45.47;101908.31;16151297;19;129737;-49
2022/05/19 16:29:45;;;;;;;107.88;31.58;;;;;;;23.10;45.32;101906.97;16152419;19;130850;-51
2022/05/19 16:35:07;;;;;;;86.90;26.45;;;;;;;23.12;45.18;101915.09;16153284;19;129789;-50
2022/05/19 16:40:30;;;;;;;68.07;20.70;;;;;;;23.10;45.22;101920.09;16152115;19;129345;-48
2022/05/19 16:45:51;;;;;;;31.75;12.43;;;;;;;23.05;44.85;101927.25;16146956;19;129952;-50
2022/05/19 16:51:13;;;;;;;24.25;10.25;;;;;;;23.07;45.02;101928.97;16150974;19;129648;-52
2022/05/19 17:02:16;;;;;;;17.92;8.80;;;;;;;23.03;44.84;101929.44;16148411;19;130127;-50
2022/05/19 17:07:38;;;;;;;20.45;10.15;;;;;;;23.00;44.68;101929.97;16139708;19;129912;-50
2022/05/19 17:13:04;;;;;;;16.38;9.02;;;;;;;23.00;44.56;101929.97;16141269;19;129614;-51
2022/05/19 17:18:26;;;;;;;15.48;10.00;;;;;;;22.98;44.49;101937.75;16136674;19;129604;-54
2022/05/19 17:23:48;;;;;;;20.13;8.27;;;;;;;22.96;44.61;101945.53;16136838;19;134253;-50
2022/05/19 17:29:13;;;;;;;29.17;7.03;;;;;;;22.98;44.82;101948.06;16133614;19;129310;-52
2022/05/19 17:34:34;;;;;;;17.25;7.63;;;;;;;23.00;44.40;101945.88;16145062;19;130421;-52
2022/05/19 17:39:57;;;;;;;23.58;8.38;;;;;;;22.98;44.57;101951.72;16141844;19;130118;-52
2022/05/19 17:45:19;;;;;;;25.48;6.65;;;;;;;22.98;44.64;101953.63;16143904;19;129452;-53
2022/05/19 17:50:41;;;;;;;17.23;4.88;;;;;;;22.98;44.80;101953.63;16148272;19;129381;-51
2022/05/19 17:56:04;;;;;;;16.20;4.95;;;;;;;22.98;44.63;101965.66;16147651;19;129452;-53
2022/05/19 18:01:26;;;;;;;9.73;4.40;;;;;;;22.99;44.96;101970.16;16140274;19;131509;-48
2022/05/19 18:06:48;;;;;;;13.55;4.03;;;;;;;23.00;44.63;101974.63;16136543;19;130083;-48
2022/05/19 18:12:10;;;;;;;16.15;4.03;;;;;;;23.00;44.62;101983.00;16138862;19;129533;-47
2022/05/19 18:23:12;;;;;;;9.38;3.30;;;;;;;22.98;44.91;102001.94;16131438;19;130888;-49
2022/05/19 18:28:37;;;;;;;9.52;3.85;;;;;;;22.98;44.32;101996.34;16128323;19;130752;-48
2022/05/19 18:33:58;;;;;;;5.90;2.67;;;;;;;22.97;44.53;102011.41;16137547;19;130582;-50
2022/05/19 18:39:20;;;;;;;18.90;3.13;;;;;;;22.97;44.28;102013.34;16132703;19;129552;-50
2022/05/19 18:44:54;;;;;;;6.80;2.38;;;;;;;22.96;44.61;102015.28;16126794;19;129869;-48
2022/05/19 18:50:16;;;;;;;4.50;2.20;;;;;;;22.95;44.61;102019.19;16132978;19;129718;-46
2022/05/19 18:55:39;;;;;;;7.32;2.22;;;;;;;22.96;44.33;102033.97;16141561;19;129311;-48
2022/05/19 19:01:01;;;;;;;8.60;2.20;;;;;;;22.96;44.36;102034.81;16141391;19;130014;-47
2022/05/19 19:06:26;;;;;;;6.82;2.22;;;;;;;22.95;44.33;102035.91;16137964;19;128946;-50
2022/05/19 19:11:48;;;;;;;;;;;;;;;22.92;44.37;102042.00;16137836;19;129518;-47
2022/05/19 19:17:10;;;;;;;10.38;1.50;;;;;;;22.92;44.38;102053.16;16124539;19;131055;-51
2022/05/19 19:22:32;;;;;;;9.48;1.95;;;;;;;22.89;44.53;102048.06;16122216;19;129943;-51
2022/05/19 19:27:54;;;;;;;7.90;1.60;;;;;;;22.87;44.66;102047.44;16122662;19;130083;-48
2022/05/19 19:33:15;;;;;;;5.25;1.60;;;;;;;22.86;44.41;102041.00;16124692;19;130510;-45
2022/05/19 19:38:37;;;;;;;12.07;2.47;;;;;;;22.85;44.81;102049.63;16125976;19;130615;-52
2022/05/19 19:43:59;;;;;;;9.63;2.00;;;;;;;22.83;44.56;102068.56;16133696;19;129074;-52
2022/05/19 19:49:21;;;;;;;5.45;1.73;;;;;;;22.82;44.55;102072.44;16127024;19;131032;-48
2022/05/19 19:54:43;;;;;;;8.70;1.73;;;;;;;22.81;44.57;102084.69;16128913;19;131358;-45
2022/05/19 20:00:08;;;;;;;4.78;1.52;;;;;;;22.80;44.56;102083.00;16128327;19;130418;-48
2022/05/19 20:05:31;;;;;;;8.57;1.95;;;;;;;22.82;44.69;102086.41;16130637;19;129526;-50
2022/05/19 20:10:55;;;;;;;5.57;1.63;;;;;;;22.83;44.85;102104.84;16129711;19;130367;-50
2022/05/19 20:16:17;;;;;;;8.48;1.50;;;;;;;22.83;44.54;102107.63;16119698;19;129932;-49
2022/05/19 20:21:40;;;;;;;11.85;1.60;;;;;;;22.81;44.26;102102.31;16123895;19;129482;-54
2022/05/19 20:27:02;;;;;;;5.65;1.40;;;;;;;22.77;44.93;102087.13;16124208;19;129489;-49
2022/05/19 20:32:24;;;;;;;10.60;2.08;;;;;;;22.74;44.73;102091.28;16125128;19;129928;-49
2022/05/19 20:37:46;;;;;;;10.90;1.33;;;;;;;22.73;44.87;102085.94;16127252;19;129059;-51
2022/05/19 20:43:09;;;;;;;7.78;1.70;;;;;;;22.71;44.95;102083.41;16134130;19;130665;-51
2022/05/19 20:48:31;;;;;;;8.48;1.55;;;;;;;22.71;45.09;102088.97;16136887;19;130063;-50
2022/05/19 20:53:53;;;;;;;7.22;1.48;;;;;;;22.69;45.06;102096.75;16138324;19;129667;-49
2022/05/19 20:59:15;;;;;;;6.55;1.50;;;;;;;22.67;45.88;102112.88;16143759;19;129671;-49
2022/05/19 21:04:37;;;;;;;6.78;1.30;;;;;;;22.66;45.43;102118.69;16147483;19;130078;-49
2022/05/19 21:09:59;;;;;;;6.85;1.75;;;;;;;22.64;45.55;102115.31;16137099;19;130028;-50
2022/05/19 21:15:21;;;;;;;8.15;1.13;;;;;;;22.63;46.07;102113.59;16142330;19;129284;-51
2022/05/19 21:20:43;;;;;;;3.45;1.02;;;;;;;22.61;46.83;102111.06;16146785;19;129762;-51
2022/05/19 21:26:05;;;;;;;3.88;1.30;;;;;;;22.60;46.05;102120.53;16143597;19;130071;-47
2022/05/19 21:31:27;;;;;;;6.72;1.50;;;;;;;22.59;46.56;102124.41;16140688;19;130714;-48
2022/05/19 21:36:49;;;;;;;4.75;0.82;;;;;;;22.58;47.46;102126.38;16140682;19;130125;-52
2022/05/19 21:42:11;;;;;;;5.28;0.93;;;;;;;22.57;47.56;102126.59;16136804;19;130645;-49
2022/05/19 21:47:33;;;;;;;3.83;1.00;;;;;;;22.55;46.52;102124.06;16130895;19;130436;-46
2022/05/19 21:58:35;;;;;;;2.28;1.10;;;;;;;22.53;46.53;102117.00;16134230;19;131262;-47
2022/05/19 22:03:57;;;;;;;4.40;1.10;;;;;;;22.53;46.70;102117.00;16139407;19;129241;-50
2022/05/19 22:09:19;;;;;;;3.00;0.90;;;;;;;22.52;47.02;102118.13;16131120;19;130357;-50
2022/05/19 22:14:41;;;;;;;2.40;1.00;;;;;;;22.51;46.71;102130.38;16132804;19;129707;-52
2022/05/19 22:20:04;;;;;;;2.47;0.93;;;;;;;22.50;47.09;102120.31;16129507;19;129588;-48
2022/05/19 22:25:26;;;;;;;3.45;0.73;;;;;;;22.48;48.06;102114.94;16138361;19;130541;-51
2022/05/19 22:30:48;;;;;;;1.85;0.80;;;;;;;22.49;47.12;102116.66;16145555;19;129650;-50
2022/05/19 22:36:10;;;;;;;2.97;0.80;;;;;;;22.48;47.00;102119.69;16139135;19;129563;-49
2022/05/19 22:41:32;;;;;;;1.60;0.70;;;;;;;22.47;47.22;102120.78;16133158;19;130406;-49
2022/05/19 22:52:35;;;;;;;2.17;1.00;;;;;;;22.44;47.43;102133.28;16131573;19;130376;-49
2022/05/19 22:57:57;;;;;;;1.25;0.80;;;;;;;22.44;47.31;102130.50;16129788;19;130140;-49
2022/05/19 23:03:19;;;;;;;1.58;0.75;;;;;;;22.43;47.28;102121.25;16133198;19;129591;-49
2022/05/19 23:08:41;;;;;;;1.95;0.70;;;;;;;22.42;47.17;102119.56;16124174;19;130582;-51
2022/05/19 23:14:03;;;;;;;1.08;0.70;;;;;;;22.41;47.45;102117.88;16127017;19;131451;-50
2022/05/19 23:19:32;;;;;;;1.75;1.00;;;;;;;22.41;47.32;102117.88;16123893;19;130674;-49
2022/05/19 23:24:54;;;;;;;2.45;0.90;;;;;;;22.39;47.65;102108.91;16131318;19;130321;-48
2022/05/19 23:30:17;;;;;;;1.05;0.90;;;;;;;22.39;47.48;102102.47;16126659;19;129891;-51
2022/05/19 23:35:39;;;;;;;1.60;0.80;;;;;;;22.37;47.58;102111.09;16129986;19;129730;-50
2022/05/19 23:41:03;;;;;;;1.45;0.80;;;;;;;22.37;47.56;102104.66;16130201;19;131005;-51
2022/05/19 23:46:25;;;;;;;0.98;0.80;;;;;;;22.37;47.63;102105.53;16129273;19;129693;-50
2022/05/19 23:51:46;;;;;;;1.83;0.70;;;;;;;22.35;47.63;102113.28;16127820;19;129759;-46
2022/05/19 23:57:08;;;;;;;1.73;1.10;;;;;;;22.34;47.50;102108.78;16128570;19;129610;-45
